Orofino, ID

1:22 PM PDT on May 25, 2015 (GMT -0700)
ITD | | Change Station
CLOSE
Current Station
Personal Weather Station
Location: Weippe, ID
Elevation: 3111 ft
Nearby Weather Stations

Elev 3111 ft 46.38 °N, 116.13 °W | Updated 53 minutes ago

Overcast
Overcast
58 °F
Feels Like 58 °F
N
7
Wind Variable Wind from NW
Gusts 11.0 mph

Today
High -- | Low -- °F
--% Chance of Precip.
Yesterday
High -- | Low -- °F
Precip. -- in
5:00 AM 8:22 PM
Waxing Crescent, 51% visible
Pressure 29.94 in
Visibility 10.0 miles
Clouds Scattered Clouds 2900 ft
Dew Point 48 °F
Humidity 68%
Rainfall in
Snow Depth Not available.
UV 9 out of 12
Pollen 8.30 out of 12
Air Quality Not available.
Flu Activity Sporadic
METAR KGIC 252015Z AUTO 04006KT 10SM SCT029 17/09 A2994 RMK AO1 T01730091

More Conditions Fewer Conditions

Pressure 29.94 in
Visibility 10.0 miles
Clouds Scattered Clouds 2900 ft
Dew Point 48 °F
Humidity 68%
Rainfall in
Snow Depth Not available.
UV 9 out of 12
Pollen 8.30 out of 12
Air Quality Not available.
Flu Activity Sporadic
METAR KGIC 252015Z AUTO 04006KT 10SM SCT029 17/09 A2994 RMK AO1 T01730091

More Conditions Fewer Conditions

10-Day Weather Forecast

Almanac

Astronomy

May. 25, 2015 Rise Set
Actual Time
Civil Twilight
Nautical Twilight
Astronomical Twilight
Moon
Length of Visible Light
Length of Day
Tomorrow will be .
, % of the Moon is Illuminated

Today's Extremes

State Highs State Lows

Community

WunderPhotos

Upload Photos

1,824,119 photos uploaded!

WunderBlogs® & News

Nearby

Air Quality

  Air Quality AQ Index Pollutant
Not available.

Snow Depth

Station Depth Elevation

Earthquake Activity

City Distance Mag. Time & Date
Minimum magnitude displayed is 2.5.

Coastal Water Temperatures

Place Temperature

Stations

Nearby Weather Stations

Station Location Temp. Windchill Dew Point Humidity Wind Precip. Elev Updated Type